createdAt,value
2018-12-11T00:01:54.573Z,75.90
2018-12-11T00:04:24.835Z,75.60
2018-12-11T00:06:53.188Z,75.10
2018-12-11T00:09:21.862Z,75.00
2018-12-11T00:11:50.440Z,75.00
2018-12-11T00:14:18.745Z,75.00
2018-12-11T00:16:47.021Z,76.30
2018-12-11T00:19:15.326Z,75.80
2018-12-11T00:21:43.549Z,75.00
2018-12-11T00:24:11.847Z,75.60
2018-12-11T00:26:40.154Z,75.80
2018-12-11T00:29:08.693Z,75.80
2018-12-11T00:31:37.036Z,76.30
2018-12-11T00:34:05.537Z,75.70
2018-12-11T00:36:33.803Z,76.40
2018-12-11T00:41:43.376Z,75.00
2018-12-11T00:44:11.640Z,75.10
2018-12-11T00:46:40.353Z,75.30
2018-12-11T00:49:08.676Z,75.20
2018-12-11T00:51:37.022Z,74.90
2018-12-11T00:54:05.591Z,74.20
2018-12-11T00:56:34.169Z,73.60
2018-12-11T00:59:03.348Z,73.90
2018-12-11T01:01:31.654Z,73.80
2018-12-11T01:04:00.313Z,73.90
2018-12-11T01:09:08.197Z,72.00
2018-12-11T01:11:36.557Z,71.50
2018-12-11T01:14:05.185Z,72.20
2018-12-11T01:16:34.112Z,71.10
2018-12-11T01:19:02.539Z,71.00
2018-12-11T01:21:30.889Z,71.20
2018-12-11T01:23:59.701Z,71.30
2018-12-11T01:26:28.006Z,70.20
2018-12-11T01:28:56.311Z,70.50
2018-12-11T01:31:24.662Z,69.90
2018-12-11T01:33:53.317Z,69.80
2018-12-11T01:36:21.613Z,69.90
2018-12-11T01:38:49.973Z,69.50
2018-12-11T01:41:18.255Z,69.30
2018-12-11T01:43:46.501Z,69.30
2018-12-11T01:46:15.043Z,69.20
2018-12-11T01:48:43.786Z,68.20
2018-12-11T01:51:13.146Z,68.70
2018-12-11T01:53:41.384Z,68.40
2018-12-11T01:56:09.987Z,68.10
2018-12-11T01:58:38.424Z,67.70
2018-12-11T02:01:06.797Z,67.20
2018-12-11T02:03:36.083Z,67.20
2018-12-11T02:06:05.510Z,66.80
2018-12-11T02:08:33.839Z,67.00
2018-12-11T02:11:09.184Z,66.60
2018-12-11T02:13:37.448Z,67.20
2018-12-11T02:16:06.008Z,66.50
2018-12-11T02:18:34.616Z,66.50
2018-12-11T02:21:02.961Z,65.90
2018-12-11T02:23:31.612Z,66.50
2018-12-11T02:28:28.692Z,65.80
2018-12-11T02:30:57.410Z,66.00
2018-12-11T02:33:25.674Z,65.50
2018-12-11T02:35:54.027Z,65.20
2018-12-11T02:38:22.565Z,65.30
2018-12-11T02:40:51.054Z,65.50
2018-12-11T02:43:19.357Z,65.10
2018-12-11T02:45:47.940Z,65.50
2018-12-11T02:48:16.193Z,65.40
2018-12-11T02:50:44.855Z,65.50
2018-12-11T02:53:13.146Z,66.30
2018-12-11T02:55:41.433Z,64.70
2018-12-11T02:58:09.762Z,65.50
2018-12-11T03:00:38.134Z,64.60
2018-12-11T03:03:06.690Z,65.50
2018-12-11T03:05:35.581Z,65.60
2018-12-11T03:08:04.020Z,64.70
2018-12-11T03:10:32.442Z,64.60
2018-12-11T03:13:01.142Z,64.80
2018-12-11T03:15:29.658Z,65.00
2018-12-11T03:18:00.105Z,64.40
2018-12-11T03:20:29.303Z,63.80
2018-12-11T03:25:26.063Z,63.30
2018-12-11T03:27:54.293Z,63.50
2018-12-11T03:30:22.883Z,63.50
2018-12-11T03:32:51.463Z,63.90
2018-12-11T03:35:20.238Z,64.50
2018-12-11T03:37:49.033Z,63.80
2018-12-11T03:40:19.873Z,64.20
2018-12-11T03:42:50.812Z,63.90
2018-12-11T03:45:22.058Z,64.20
2018-12-11T03:47:54.349Z,64.90
2018-12-11T03:50:25.119Z,65.10
2018-12-11T03:52:56.204Z,64.80
2018-12-11T03:55:28.130Z,64.60
2018-12-11T03:57:59.193Z,63.70
2018-12-11T04:00:31.152Z,64.40
2018-12-11T04:03:02.672Z,64.80
2018-12-11T04:05:34.243Z,64.30
2018-12-11T04:08:05.885Z,63.80
2018-12-11T04:10:37.720Z,64.40
2018-12-11T04:16:13.329Z,64.40
2018-12-11T04:18:45.356Z,64.20
2018-12-11T04:21:16.612Z,64.70
2018-12-11T04:23:48.002Z,64.40
2018-12-11T04:28:51.908Z,63.80
2018-12-11T04:31:23.274Z,64.30
2018-12-11T04:33:54.659Z,63.70
2018-12-11T04:36:26.380Z,64.10
2018-12-11T04:38:57.861Z,63.90
2018-12-11T04:41:29.911Z,64.50
2018-12-11T04:44:01.067Z,65.00
2018-12-11T04:46:31.765Z,64.70
2018-12-11T04:49:02.987Z,65.40
2018-12-11T04:51:35.072Z,65.30
2018-12-11T04:56:39.327Z,64.70
2018-12-11T04:59:10.940Z,64.70
2018-12-11T05:01:42.410Z,65.20
2018-12-11T05:04:13.910Z,65.50
2018-12-11T05:06:45.659Z,65.50
2018-12-11T05:09:18.036Z,65.60
2018-12-11T05:11:49.660Z,66.30
2018-12-11T05:14:20.650Z,65.80
2018-12-11T05:16:52.159Z,66.00
2018-12-11T05:19:26.069Z,66.20
2018-12-11T05:21:58.734Z,66.20
2018-12-11T05:24:30.631Z,66.30
2018-12-11T05:27:03.371Z,66.50
2018-12-11T05:29:35.960Z,67.00
2018-12-11T05:32:08.962Z,66.60
2018-12-11T05:34:42.733Z,66.90
2018-12-11T05:37:13.792Z,66.90
2018-12-11T05:39:49.879Z,67.30
2018-12-11T05:42:20.631Z,67.60
2018-12-11T05:44:51.932Z,67.30
2018-12-11T05:47:23.624Z,66.90
2018-12-11T05:50:08.724Z,66.70
2018-12-11T05:52:40.790Z,67.50
2018-12-11T05:55:12.376Z,66.70
2018-12-11T05:57:43.421Z,67.10
2018-12-11T06:00:14.577Z,67.10
2018-12-11T06:02:46.093Z,67.80
2018-12-11T06:08:11.613Z,66.50
2018-12-11T06:10:43.162Z,66.90
2018-12-11T06:13:15.847Z,67.90
2018-12-11T06:15:47.402Z,67.50
2018-12-11T06:18:18.979Z,66.90
2018-12-11T06:20:50.465Z,67.20
2018-12-11T06:23:22.789Z,66.70
2018-12-11T06:25:54.656Z,67.00
2018-12-11T06:28:26.455Z,67.10
2018-12-11T06:30:58.289Z,67.20
2018-12-11T06:33:29.954Z,67.20
2018-12-11T06:36:00.412Z,67.70
2018-12-11T06:38:32.770Z,67.20
2018-12-11T06:41:05.039Z,67.30
2018-12-11T06:43:36.932Z,67.90
2018-12-11T06:46:08.578Z,67.60
2018-12-11T06:48:40.501Z,67.50
2018-12-11T06:51:11.490Z,68.00
2018-12-11T06:53:43.458Z,67.30
2018-12-11T06:56:15.317Z,67.20
2018-12-11T06:58:47.221Z,67.80
2018-12-11T07:01:18.289Z,67.20
2018-12-11T07:03:50.413Z,67.00
2018-12-11T07:06:21.792Z,67.30
2018-12-11T07:08:52.851Z,67.20
2018-12-11T07:11:24.078Z,67.30
2018-12-11T07:13:55.996Z,67.00
2018-12-11T07:18:59.104Z,67.10
2018-12-11T07:21:31.279Z,66.80
2018-12-11T07:24:01.939Z,66.70
2018-12-11T07:26:32.938Z,66.80
2018-12-11T07:29:05.107Z,67.10
2018-12-11T07:31:36.570Z,67.10
2018-12-11T07:34:09.530Z,67.30
2018-12-11T07:39:13.088Z,67.10
2018-12-11T07:41:44.805Z,67.20
2018-12-11T07:44:16.512Z,67.50
2018-12-11T07:46:48.291Z,66.90
2018-12-11T07:49:19.605Z,66.70
2018-12-11T07:51:51.843Z,66.90
2018-12-11T07:54:23.822Z,67.20
2018-12-11T07:57:00.880Z,66.10
2018-12-11T07:59:32.855Z,65.50
2018-12-11T08:02:06.280Z,66.00
2018-12-11T08:04:38.088Z,66.20
2018-12-11T08:07:08.818Z,66.00
2018-12-11T08:09:41.298Z,66.70
2018-12-11T08:12:13.375Z,67.60
2018-12-11T08:14:44.614Z,67.80
2018-12-11T08:17:17.065Z,67.60
2018-12-11T08:19:48.888Z,66.90
2018-12-11T08:22:19.917Z,66.50
2018-12-11T08:24:51.578Z,66.50
2018-12-11T08:27:22.885Z,66.20
2018-12-11T08:29:55.322Z,65.90
2018-12-11T08:32:27.660Z,65.90
2018-12-11T08:37:30.576Z,66.00
2018-12-11T08:40:02.536Z,66.40
2018-12-11T08:42:34.869Z,65.10
2018-12-11T08:45:07.354Z,65.10
2018-12-11T08:47:39.247Z,65.60
2018-12-11T08:50:10.847Z,65.30
2018-12-11T08:52:42.589Z,65.70
2018-12-11T08:55:13.579Z,65.00
2018-12-11T08:57:45.282Z,65.60
2018-12-11T09:00:16.607Z,65.50
2018-12-11T09:02:47.890Z,64.60
2018-12-11T09:05:19.822Z,65.20
2018-12-11T09:07:51.140Z,65.80
2018-12-11T09:10:23.073Z,64.80
2018-12-11T09:12:54.556Z,64.90
2018-12-11T09:15:26.029Z,64.80
2018-12-11T09:17:57.687Z,65.50
2018-12-11T09:20:29.585Z,65.20
2018-12-11T09:23:01.184Z,65.20
2018-12-11T09:25:32.448Z,64.90
2018-12-11T09:28:03.820Z,64.90
2018-12-11T09:30:35.171Z,65.00
2018-12-11T09:33:07.519Z,65.10
2018-12-11T09:35:38.689Z,64.40
2018-12-11T09:38:09.333Z,63.60
2018-12-11T09:40:40.312Z,64.10
2018-12-11T09:45:42.831Z,64.20
2018-12-11T09:48:14.298Z,63.80
2018-12-11T09:50:45.213Z,63.60
2018-12-11T09:53:16.521Z,64.70
2018-12-11T09:55:49.529Z,64.30
2018-12-11T09:58:21.234Z,65.80
2018-12-11T10:00:53.178Z,65.10
2018-12-11T10:03:24.556Z,65.30
2018-12-11T10:05:59.947Z,65.80
2018-12-11T10:08:31.640Z,66.20
2018-12-11T10:11:03.052Z,65.30
2018-12-11T10:13:34.346Z,64.70
2018-12-11T10:16:05.733Z,65.40
2018-12-11T10:18:37.424Z,65.30
2018-12-11T10:21:09.255Z,64.80
2018-12-11T10:23:41.777Z,63.80
2018-12-11T10:26:13.300Z,64.50
2018-12-11T10:28:45.107Z,64.30
2018-12-11T10:31:16.635Z,64.10
2018-12-11T10:33:48.000Z,63.30
2018-12-11T10:36:19.989Z,62.90
2018-12-11T10:38:51.008Z,62.90
2018-12-11T10:43:53.887Z,61.90
2018-12-11T10:46:25.222Z,59.40
2018-12-11T10:48:56.700Z,62.40
2018-12-11T10:51:30.155Z,63.00
2018-12-11T10:54:02.614Z,63.10
2018-12-11T10:56:34.481Z,63.40
2018-12-11T10:59:05.440Z,63.80
2018-12-11T11:01:41.375Z,63.60
2018-12-11T11:04:12.999Z,63.80
2018-12-11T11:06:44.293Z,63.20
2018-12-11T11:14:18.454Z,62.60
2018-12-11T11:16:49.599Z,62.70
2018-12-11T11:19:21.191Z,63.50
2018-12-11T11:21:52.637Z,63.20
2018-12-11T11:24:23.608Z,63.60
2018-12-11T11:26:55.394Z,61.50
2018-12-11T11:29:27.582Z,62.00
2018-12-11T11:31:58.666Z,61.00
2018-12-11T11:34:39.896Z,61.10
2018-12-11T11:37:11.024Z,61.80
2018-12-11T11:39:42.154Z,61.70
2018-12-11T11:42:15.181Z,60.30
2018-12-11T11:44:46.950Z,61.40
2018-12-11T11:47:18.622Z,60.90
2018-12-11T11:49:49.960Z,60.90
2018-12-11T11:52:21.384Z,60.80
2018-12-11T11:54:52.811Z,60.30
2018-12-11T11:57:29.531Z,60.10
2018-12-11T11:59:57.900Z,60.30
2018-12-11T12:02:33.351Z,60.60
2018-12-11T12:05:03.414Z,60.50
2018-12-11T12:07:35.258Z,60.20
2018-12-11T12:10:11.252Z,59.80
2018-12-11T12:12:42.508Z,59.80
2018-12-11T12:15:13.705Z,57.80
2018-12-11T12:17:45.231Z,58.60
2018-12-11T12:20:17.367Z,58.20
2018-12-11T12:22:49.287Z,59.00
2018-12-11T12:25:21.229Z,59.50
2018-12-11T12:27:52.570Z,58.10
2018-12-11T12:30:26.783Z,58.50
2018-12-11T12:33:00.018Z,58.40
2018-12-11T12:35:31.146Z,58.10
2018-12-11T12:38:03.159Z,58.00
2018-12-11T12:40:35.270Z,57.50
2018-12-11T12:43:06.908Z,58.60
2018-12-11T12:45:39.628Z,58.90
2018-12-11T12:48:10.701Z,58.70
2018-12-11T12:50:41.167Z,60.50
2018-12-11T12:53:12.618Z,61.10
2018-12-11T12:58:30.552Z,59.00
2018-12-11T13:01:01.552Z,60.00
2018-12-11T13:03:33.176Z,60.90
2018-12-11T13:06:04.520Z,61.10
2018-12-11T13:08:36.361Z,60.80
2018-12-11T13:11:08.224Z,60.90
2018-12-11T13:13:40.497Z,61.00
2018-12-11T13:16:12.881Z,62.70
2018-12-11T13:18:44.923Z,66.10
2018-12-11T13:21:16.420Z,68.30
2018-12-11T13:23:48.165Z,68.70
2018-12-11T13:26:19.363Z,69.30
2018-12-11T13:28:51.250Z,69.40
2018-12-11T13:31:22.685Z,70.60
2018-12-11T13:33:54.529Z,70.50
2018-12-11T13:36:32.003Z,70.00
2018-12-11T13:41:31.215Z,67.00
2018-12-11T13:44:03.132Z,67.20
2018-12-11T13:46:35.321Z,65.40
2018-12-11T13:49:07.115Z,65.00
2018-12-11T13:51:39.163Z,65.40
2018-12-11T13:54:11.114Z,63.00
2018-12-11T13:56:41.933Z,63.30
2018-12-11T13:59:13.066Z,64.10
2018-12-11T14:01:44.685Z,63.00
2018-12-11T14:04:16.605Z,62.30
2018-12-11T14:06:48.739Z,62.80
2018-12-11T14:09:26.918Z,62.30
2018-12-11T14:11:58.587Z,62.30
2018-12-11T14:14:30.173Z,63.00
2018-12-11T14:17:02.258Z,61.70
2018-12-11T14:22:04.288Z,61.10
2018-12-11T14:24:36.542Z,61.60
2018-12-11T14:27:07.937Z,62.20
2018-12-11T14:29:40.448Z,61.50
2018-12-11T14:32:12.582Z,61.40
2018-12-11T14:34:43.727Z,61.10
2018-12-11T14:37:14.618Z,61.40
2018-12-11T14:39:46.639Z,61.00
2018-12-11T14:42:18.205Z,60.70
2018-12-11T14:44:50.149Z,60.70
2018-12-11T14:47:21.254Z,60.80
2018-12-11T14:49:52.616Z,61.10
2018-12-11T14:52:24.512Z,61.90
2018-12-11T14:54:56.107Z,61.70
2018-12-11T14:57:31.179Z,61.60
2018-12-11T15:00:03.632Z,61.20
2018-12-11T15:02:34.579Z,61.60
2018-12-11T15:05:07.339Z,63.00
2018-12-11T15:07:39.592Z,61.70
2018-12-11T15:10:13.098Z,61.30
2018-12-11T15:12:44.201Z,62.00
2018-12-11T15:15:16.149Z,62.40
2018-12-11T15:17:47.408Z,60.80
2018-12-11T15:20:18.764Z,61.60
2018-12-11T15:22:50.496Z,62.30
2018-12-11T15:25:21.431Z,60.80
2018-12-11T15:27:53.502Z,61.20
2018-12-11T15:30:25.841Z,60.10
2018-12-11T15:35:46.775Z,60.00
2018-12-11T15:38:18.860Z,60.20
2018-12-11T15:40:50.010Z,60.40
2018-12-11T15:43:22.629Z,60.70
2018-12-11T15:45:54.106Z,61.50
2018-12-11T15:48:26.134Z,61.50
2018-12-11T15:50:57.954Z,61.60
2018-12-11T15:53:29.970Z,61.20
2018-12-11T15:56:01.453Z,60.80
2018-12-11T15:58:32.861Z,61.00
2018-12-11T16:01:04.406Z,61.60
2018-12-11T16:03:36.736Z,61.10
2018-12-11T16:06:09.281Z,61.20
2018-12-11T16:08:41.073Z,61.50
2018-12-11T16:11:12.919Z,62.30
2018-12-11T16:13:44.974Z,61.90
2018-12-11T16:16:15.798Z,62.10
2018-12-11T16:18:47.744Z,62.80
2018-12-11T16:21:19.820Z,62.00
2018-12-11T16:23:52.162Z,64.00
2018-12-11T16:26:24.279Z,64.30
2018-12-11T16:28:55.512Z,62.20
2018-12-11T16:31:27.932Z,62.30
2018-12-11T16:34:00.942Z,63.10
2018-12-11T16:36:33.722Z,62.50
2018-12-11T16:39:09.688Z,61.60
2018-12-11T16:41:40.776Z,62.00
2018-12-11T16:44:11.826Z,61.40
2018-12-11T16:46:42.595Z,61.50
2018-12-11T16:49:14.706Z,61.80
2018-12-11T16:51:45.966Z,62.00
2018-12-11T16:54:18.570Z,61.40
2018-12-11T16:59:20.329Z,61.10
2018-12-11T17:01:51.821Z,61.30
2018-12-11T17:04:23.199Z,61.80
2018-12-11T17:06:54.131Z,61.60
2018-12-11T17:09:25.535Z,61.90
2018-12-11T17:11:57.589Z,62.00
2018-12-11T17:14:29.807Z,62.00
2018-12-11T17:16:58.502Z,62.10
2018-12-11T17:19:26.883Z,62.10
2018-12-11T17:21:56.386Z,62.30
2018-12-11T17:24:25.537Z,63.40
2018-12-11T17:26:53.797Z,62.80
2018-12-11T17:29:24.621Z,62.80
2018-12-11T17:31:55.395Z,62.90
2018-12-11T17:34:25.887Z,63.10
2018-12-11T17:36:56.340Z,62.70
2018-12-11T17:39:27.104Z,62.80
2018-12-11T17:41:57.903Z,63.00
2018-12-11T17:44:29.147Z,62.70
2018-12-11T17:46:58.565Z,62.40
2018-12-11T17:49:29.063Z,61.40
2018-12-11T17:51:59.314Z,61.70
2018-12-11T17:54:31.042Z,62.00
2018-12-11T17:57:07.351Z,61.90
2018-12-11T17:59:37.703Z,61.00
2018-12-11T18:02:09.946Z,61.60
2018-12-11T18:04:40.599Z,61.30
2018-12-11T18:07:11.118Z,60.50
2018-12-11T18:09:41.783Z,60.70
2018-12-11T18:12:11.822Z,61.00
2018-12-11T18:14:42.843Z,62.30
2018-12-11T18:17:13.385Z,60.60
2018-12-11T18:19:43.835Z,60.60
2018-12-11T18:22:13.257Z,61.10
2018-12-11T18:24:43.285Z,60.00
2018-12-11T18:27:12.885Z,60.40
2018-12-11T18:29:41.170Z,59.60
2018-12-11T18:32:10.084Z,59.90
2018-12-11T18:37:26.171Z,60.50
2018-12-11T18:42:24.157Z,60.00
2018-12-11T18:50:01.017Z,61.60
2018-12-11T18:52:29.297Z,63.20
2018-12-11T18:54:57.879Z,63.60
2018-12-11T18:57:26.126Z,63.80
2018-12-11T18:59:54.635Z,65.30
2018-12-11T19:02:23.631Z,64.90
2018-12-11T19:04:51.928Z,65.50
2018-12-11T19:07:23.609Z,66.30
2018-12-11T19:09:55.019Z,67.20
2018-12-11T19:12:23.417Z,67.30
2018-12-11T19:14:52.966Z,67.20
2018-12-11T19:17:21.221Z,67.50
2018-12-11T19:19:49.761Z,67.70
2018-12-11T19:22:18.177Z,68.70
2018-12-11T19:24:50.987Z,69.10
2018-12-11T19:27:19.364Z,68.70
2018-12-11T19:29:47.774Z,69.90
2018-12-11T19:32:16.173Z,70.20
2018-12-11T19:34:46.763Z,70.90
2018-12-11T19:37:15.516Z,71.20
2018-12-11T19:39:43.777Z,72.40
2018-12-11T19:42:12.824Z,72.90
2018-12-11T19:44:41.294Z,73.80
2018-12-11T19:47:09.566Z,73.00
2018-12-11T19:49:38.126Z,74.30
2018-12-11T19:52:06.766Z,74.30
2018-12-11T19:54:35.455Z,73.70
2018-12-11T19:57:04.549Z,74.10
2018-12-11T19:59:34.027Z,74.80
2018-12-11T20:02:02.532Z,75.40
2018-12-11T20:04:31.498Z,75.00
2018-12-11T20:07:00.618Z,74.80
2018-12-11T20:09:28.958Z,75.20
2018-12-11T20:11:57.355Z,75.80
2018-12-11T20:14:25.938Z,76.60
2018-12-11T20:16:54.230Z,76.70
2018-12-11T20:19:22.498Z,77.00
2018-12-11T20:21:50.813Z,77.30
2018-12-11T20:24:20.230Z,77.80
2018-12-11T20:26:48.470Z,78.10
2018-12-11T20:29:17.036Z,78.10
2018-12-11T20:31:45.589Z,77.40
2018-12-11T20:34:13.889Z,77.70
2018-12-11T20:36:42.989Z,77.10
2018-12-11T20:39:12.200Z,77.40
2018-12-11T20:41:40.821Z,77.70
2018-12-11T20:44:09.432Z,77.20
2018-12-11T20:46:37.821Z,77.40
2018-12-11T20:49:06.298Z,76.70
2018-12-11T20:51:35.130Z,76.40
2018-12-11T20:54:03.447Z,76.00
2018-12-11T20:56:31.875Z,76.00
2018-12-11T20:59:00.457Z,76.80
2018-12-11T21:01:28.970Z,75.80
2018-12-11T21:03:57.525Z,75.90
2018-12-11T21:06:25.831Z,76.50
2018-12-11T21:08:54.146Z,76.90
2018-12-11T21:11:22.786Z,76.30
2018-12-11T21:13:51.246Z,76.30
2018-12-11T21:16:20.485Z,76.60
2018-12-11T21:18:49.351Z,76.60
2018-12-11T21:21:17.630Z,76.60
2018-12-11T21:26:26.038Z,76.40
2018-12-11T21:28:54.492Z,77.60
2018-12-11T21:31:22.997Z,77.70
2018-12-11T21:33:51.791Z,77.50
2018-12-11T21:36:20.092Z,77.50
2018-12-11T21:38:48.828Z,78.40
2018-12-11T21:41:17.173Z,78.40
2018-12-11T21:43:45.993Z,78.90
2018-12-11T21:46:14.509Z,78.50
2018-12-11T21:48:42.788Z,79.10
2018-12-11T21:51:11.142Z,79.10
2018-12-11T21:53:39.453Z,79.40
2018-12-11T21:56:07.886Z,79.50
2018-12-11T21:58:36.771Z,80.20
2018-12-11T22:01:05.265Z,80.10
2018-12-11T22:03:33.894Z,80.40
2018-12-11T22:06:02.733Z,81.90
2018-12-11T22:08:31.310Z,83.10
2018-12-11T22:10:59.841Z,81.20
2018-12-11T22:13:28.845Z,82.00
2018-12-11T22:15:57.537Z,79.60
2018-12-11T22:20:53.971Z,78.50
2018-12-11T22:23:22.287Z,78.50
2018-12-11T22:25:50.774Z,79.10
2018-12-11T22:28:19.058Z,78.50
2018-12-11T22:30:47.621Z,79.10
2018-12-11T22:33:16.177Z,79.50
2018-12-11T22:35:44.482Z,79.70
2018-12-11T22:38:13.054Z,79.80
2018-12-11T22:40:41.496Z,77.70
2018-12-11T22:43:10.127Z,78.00
2018-12-11T22:45:38.858Z,78.30
2018-12-11T22:48:07.224Z,76.40
2018-12-11T22:50:36.206Z,76.40
2018-12-11T22:53:04.923Z,76.80
2018-12-11T22:55:33.804Z,77.40
2018-12-11T22:58:02.607Z,77.90
2018-12-11T23:00:31.321Z,78.00
2018-12-11T23:03:01.706Z,77.80
2018-12-11T23:05:30.077Z,77.90
2018-12-11T23:07:58.684Z,76.40
2018-12-11T23:10:27.473Z,76.80
2018-12-11T23:12:56.049Z,76.50
2018-12-11T23:15:24.689Z,76.40
2018-12-11T23:17:53.017Z,76.30
2018-12-11T23:20:21.415Z,76.00
2018-12-11T23:22:49.676Z,77.90
2018-12-11T23:25:18.349Z,76.90
2018-12-11T23:27:46.712Z,77.30
2018-12-11T23:30:15.120Z,77.90
2018-12-11T23:32:44.005Z,78.30
2018-12-11T23:35:12.563Z,75.30
2018-12-11T23:37:41.503Z,75.50
2018-12-11T23:40:10.171Z,75.20
2018-12-11T23:42:38.413Z,75.90
2018-12-11T23:45:08.709Z,72.90
2018-12-11T23:47:37.109Z,72.00
2018-12-11T23:52:34.697Z,73.00
2018-12-11T23:55:03.551Z,73.80
2018-12-11T23:57:31.865Z,74.20
